GSQ weather

Shark El Oweinat International Airport
New Valley Governorate, Egypt

Public forecast

Using degrees Celsius for public forecast. Weather courtesy of forecast.io.

METAR (pilot weather report)

Closest report is Abu Simbel Airport, 161.1 nm (298.4 km) E. Retrieved 2019/04/20 10:00 UTC (42 minutes ago):

HEBL 201000Z 07006KT CAVOK 30/05 Q1015 NOSIG

TAF (pilot weather forecast)

Retrieved 2019/04/20 06:00 UTC (5 hours ago):

TAF HEOW 200500Z 2006/2112 36010G20KT 6000 NSC